Terminal Aerodrome Forecast
Issued by NWS

Home | Current Version | Previous Version | Text Only | Print | Product List | Glossary On
Versions: 1 2 3 4 5 6 7 8 9 10 11 12 13 14
000
FTUS46 KPDT 221100
TAFPSC
TAF
KPSC 221130Z 2212/2312 VRB04KT P6SM OVC090
     FM221600 19011KT P6SM VCSH OVC080
     FM222300 18010KT P6SM -SHRA OVC070=

USA.gov is the U.S. government's official web portal to all federal, state and local government web resources and services.